Terminal Aerodrome Forecast
Issued by NWS

Home | Current Version | Previous Version | Graphics & Text | Print | Product List | Glossary On
Versions: 1 2 3 4 5 6 7 8 9 10 11 12 13 14 15 16 17
548
FTUS43 KIWX 160933 AAA
TAFSBN
TAF AMD
KSBN 160933Z 1610/1706 33013KT 5SM BR OVC006
     FM161300 33014KT P6SM OVC012
     FM161800 32014G20KT P6SM BKN035
     FM162300 31006KT P6SM SCT040=

USA.gov is the U.S. government's official web portal to all federal, state and local government web resources and services.